Tiete, Brazil
Current Conditions -  °F | °C
As of 2:00 PM on Wednesday 28 Jan 2015 (Local Time) from SBKP Reporting Station
Broken Clouds Broken Clouds  
Wind Chill: 82°   Ceiling: 3000
Heat Index: 85°   Visibility: 6mi
Dew Point: 66°   Wind: 8mph
Humidity: 58%   Direction: 330°NNW
Pressure: 30.03"   Gusts: NA
Location:  23.12°S, 47.72°W
Report Text: SBKP 281600Z 33007KT 9999 BKN030 BKN100 28/19 Q1017
Loading
Personal Weather Stations






























Interactive Weather Map New forecast layout! Learn more

10-Day Weather Forecast

Advertisements
Track Severe Weather on mobile